sensor_id;sensor_type;location;lat;lon;timestamp;temperature;humidity
37408;DHT22;24866;50.248;8.252;2023-06-22T00:01:56;19.90;99.90
37408;DHT22;24866;50.248;8.252;2023-06-22T00:04:26;19.80;99.90
37408;DHT22;24866;50.248;8.252;2023-06-22T00:06:56;20.00;99.90
37408;DHT22;24866;50.248;8.252;2023-06-22T00:09:27;19.90;99.90
37408;DHT22;24866;50.248;8.252;2023-06-22T00:11:57;20.10;99.90
37408;DHT22;24866;50.248;8.252;2023-06-22T00:14:27;20.00;99.90
37408;DHT22;24866;50.248;8.252;2023-06-22T00:16:57;20.00;99.90
37408;DHT22;24866;50.248;8.252;2023-06-22T00:19:27;19.90;99.90
37408;DHT22;24866;50.248;8.252;2023-06-22T00:21:57;19.90;99.90
37408;DHT22;24866;50.248;8.252;2023-06-22T00:24:30;19.80;99.90
37408;DHT22;24866;50.248;8.252;2023-06-22T00:27:00;19.80;99.90
37408;DHT22;24866;50.248;8.252;2023-06-22T00:29:29;20.20;99.90
37408;DHT22;24866;50.248;8.252;2023-06-22T00:31:59;20.40;99.90
37408;DHT22;24866;50.248;8.252;2023-06-22T00:34:29;20.50;99.90
37408;DHT22;24866;50.248;8.252;2023-06-22T00:36:59;20.60;99.90
37408;DHT22;24866;50.248;8.252;2023-06-22T00:39:30;20.70;99.90
37408;DHT22;24866;50.248;8.252;2023-06-22T00:42:01;20.10;99.90
37408;DHT22;24866;50.248;8.252;2023-06-22T00:44:31;20.10;99.90
37408;DHT22;24866;50.248;8.252;2023-06-22T00:47:01;20.00;99.90
37408;DHT22;24866;50.248;8.252;2023-06-22T00:49:31;20.10;99.90
37408;DHT22;24866;50.248;8.252;2023-06-22T00:52:02;20.00;99.90
37408;DHT22;24866;50.248;8.252;2023-06-22T00:54:33;20.00;99.90
37408;DHT22;24866;50.248;8.252;2023-06-22T00:57:04;19.90;99.90
37408;DHT22;24866;50.248;8.252;2023-06-22T00:59:34;19.70;99.90
37408;DHT22;24866;50.248;8.252;2023-06-22T01:02:04;19.70;99.90
37408;DHT22;24866;50.248;8.252;2023-06-22T01:04:35;19.70;99.90
37408;DHT22;24866;50.248;8.252;2023-06-22T01:07:10;19.80;99.90
37408;DHT22;24866;50.248;8.252;2023-06-22T01:09:49;19.90;99.90
37408;DHT22;24866;50.248;8.252;2023-06-22T01:12:23;20.20;99.90
37408;DHT22;24866;50.248;8.252;2023-06-22T01:14:57;20.40;99.90
37408;DHT22;24866;50.248;8.252;2023-06-22T01:17:31;20.50;99.90
37408;DHT22;24866;50.248;8.252;2023-06-22T01:20:02;20.60;99.90
37408;DHT22;24866;50.248;8.252;2023-06-22T01:22:43;20.50;99.90
37408;DHT22;24866;50.248;8.252;2023-06-22T01:25:21;20.20;99.90
37408;DHT22;24866;50.248;8.252;2023-06-22T01:27:59;20.20;99.90
37408;DHT22;24866;50.248;8.252;2023-06-22T01:30:33;20.40;99.90
37408;DHT22;24866;50.248;8.252;2023-06-22T01:33:04;20.00;99.90
37408;DHT22;24866;50.248;8.252;2023-06-22T01:35:34;20.20;99.90
37408;DHT22;24866;50.248;8.252;2023-06-22T01:38:05;20.00;99.90
37408;DHT22;24866;50.248;8.252;2023-06-22T01:40:36;19.80;99.90
37408;DHT22;24866;50.248;8.252;2023-06-22T01:43:06;19.70;99.90
37408;DHT22;24866;50.248;8.252;2023-06-22T01:45:37;19.70;99.90
37408;DHT22;24866;50.248;8.252;2023-06-22T01:48:08;20.00;99.90
37408;DHT22;24866;50.248;8.252;2023-06-22T01:50:38;19.90;99.90
37408;DHT22;24866;50.248;8.252;2023-06-22T01:53:08;19.80;99.90
37408;DHT22;24866;50.248;8.252;2023-06-22T01:55:38;19.50;99.90
37408;DHT22;24866;50.248;8.252;2023-06-22T01:58:08;19.80;99.90
37408;DHT22;24866;50.248;8.252;2023-06-22T02:00:41;19.90;99.90
37408;DHT22;24866;50.248;8.252;2023-06-22T02:03:17;20.10;99.90
37408;DHT22;24866;50.248;8.252;2023-06-22T02:05:56;20.30;99.90
37408;DHT22;24866;50.248;8.252;2023-06-22T02:08:30;20.30;99.90
37408;DHT22;24866;50.248;8.252;2023-06-22T02:11:02;20.30;99.90
37408;DHT22;24866;50.248;8.252;2023-06-22T02:13:33;20.30;99.90
37408;DHT22;24866;50.248;8.252;2023-06-22T02:16:05;20.20;99.90
37408;DHT22;24866;50.248;8.252;2023-06-22T02:18:34;19.80;99.90
37408;DHT22;24866;50.248;8.252;2023-06-22T02:21:05;20.10;99.90
37408;DHT22;24866;50.248;8.252;2023-06-22T02:23:35;20.20;99.90
37408;DHT22;24866;50.248;8.252;2023-06-22T02:26:05;20.20;99.90
37408;DHT22;24866;50.248;8.252;2023-06-22T02:28:35;20.00;99.90
37408;DHT22;24866;50.248;8.252;2023-06-22T02:31:06;19.90;99.90
37408;DHT22;24866;50.248;8.252;2023-06-22T02:33:36;19.80;99.90
37408;DHT22;24866;50.248;8.252;2023-06-22T02:36:06;19.70;99.90
37408;DHT22;24866;50.248;8.252;2023-06-22T02:38:37;19.70;99.90
37408;DHT22;24866;50.248;8.252;2023-06-22T02:41:07;19.80;99.90
37408;DHT22;24866;50.248;8.252;2023-06-22T02:43:41;19.70;99.90
37408;DHT22;24866;50.248;8.252;2023-06-22T02:46:13;19.90;99.90
37408;DHT22;24866;50.248;8.252;2023-06-22T02:48:43;20.10;99.90
37408;DHT22;24866;50.248;8.252;2023-06-22T02:51:12;20.20;99.90
37408;DHT22;24866;50.248;8.252;2023-06-22T02:53:43;20.10;99.90
37408;DHT22;24866;50.248;8.252;2023-06-22T02:56:14;20.00;99.90
37408;DHT22;24866;50.248;8.252;2023-06-22T02:58:44;20.00;99.90
37408;DHT22;24866;50.248;8.252;2023-06-22T03:01:15;20.10;99.90
37408;DHT22;24866;50.248;8.252;2023-06-22T03:03:45;20.20;99.90
37408;DHT22;24866;50.248;8.252;2023-06-22T03:06:15;20.30;99.90
37408;DHT22;24866;50.248;8.252;2023-06-22T03:08:45;20.00;99.90
37408;DHT22;24866;50.248;8.252;2023-06-22T03:11:14;19.80;99.90
37408;DHT22;24866;50.248;8.252;2023-06-22T03:13:44;19.80;99.90
37408;DHT22;24866;50.248;8.252;2023-06-22T03:16:16;19.90;99.90
37408;DHT22;24866;50.248;8.252;2023-06-22T03:18:46;20.10;99.90
37408;DHT22;24866;50.248;8.252;2023-06-22T03:21:16;20.00;99.90
37408;DHT22;24866;50.248;8.252;2023-06-22T03:23:46;20.00;99.90
37408;DHT22;24866;50.248;8.252;2023-06-22T03:26:16;20.10;99.90
37408;DHT22;24866;50.248;8.252;2023-06-22T03:28:46;20.10;99.90
37408;DHT22;24866;50.248;8.252;2023-06-22T03:31:17;20.00;99.90
37408;DHT22;24866;50.248;8.252;2023-06-22T03:33:50;20.00;99.90
37408;DHT22;24866;50.248;8.252;2023-06-22T03:36:20;20.10;99.90
37408;DHT22;24866;50.248;8.252;2023-06-22T03:38:51;20.10;99.90
37408;DHT22;24866;50.248;8.252;2023-06-22T03:41:21;19.80;99.90
37408;DHT22;24866;50.248;8.252;2023-06-22T03:43:51;20.00;99.90
37408;DHT22;24866;50.248;8.252;2023-06-22T03:46:22;19.80;99.90
37408;DHT22;24866;50.248;8.252;2023-06-22T03:48:52;20.00;99.90
37408;DHT22;24866;50.248;8.252;2023-06-22T03:51:21;19.90;99.90
37408;DHT22;24866;50.248;8.252;2023-06-22T03:53:51;19.90;99.90
37408;DHT22;24866;50.248;8.252;2023-06-22T03:56:21;19.90;99.90
37408;DHT22;24866;50.248;8.252;2023-06-22T03:58:51;20.00;99.90
37408;DHT22;24866;50.248;8.252;2023-06-22T04:01:23;20.10;99.90
37408;DHT22;24866;50.248;8.252;2023-06-22T04:03:52;19.90;99.90
37408;DHT22;24866;50.248;8.252;2023-06-22T04:06:22;19.80;99.90
37408;DHT22;24866;50.248;8.252;2023-06-22T04:08:52;19.90;99.90
37408;DHT22;24866;50.248;8.252;2023-06-22T04:11:22;20.00;99.90
37408;DHT22;24866;50.248;8.252;2023-06-22T04:13:52;19.90;99.90
37408;DHT22;24866;50.248;8.252;2023-06-22T04:16:23;19.70;99.90
37408;DHT22;24866;50.248;8.252;2023-06-22T04:18:53;19.90;99.90
37408;DHT22;24866;50.248;8.252;2023-06-22T04:21:23;19.70;99.90
37408;DHT22;24866;50.248;8.252;2023-06-22T04:23:53;19.80;99.90
37408;DHT22;24866;50.248;8.252;2023-06-22T04:26:23;20.00;99.90
37408;DHT22;24866;50.248;8.252;2023-06-22T04:28:53;19.70;99.90
37408;DHT22;24866;50.248;8.252;2023-06-22T04:31:25;19.80;99.90
37408;DHT22;24866;50.248;8.252;2023-06-22T04:34:00;19.80;99.90
37408;DHT22;24866;50.248;8.252;2023-06-22T04:36:35;19.90;99.90
37408;DHT22;24866;50.248;8.252;2023-06-22T04:39:07;19.90;99.90
37408;DHT22;24866;50.248;8.252;2023-06-22T04:41:38;19.90;99.90
37408;DHT22;24866;50.248;8.252;2023-06-22T04:44:12;19.90;99.90
37408;DHT22;24866;50.248;8.252;2023-06-22T04:46:43;20.00;99.90
37408;DHT22;24866;50.248;8.252;2023-06-22T04:49:13;20.10;99.90
37408;DHT22;24866;50.248;8.252;2023-06-22T04:51:43;20.00;99.90
37408;DHT22;24866;50.248;8.252;2023-06-22T04:54:12;20.00;99.90
37408;DHT22;24866;50.248;8.252;2023-06-22T04:56:42;20.00;99.90
37408;DHT22;24866;50.248;8.252;2023-06-22T04:59:15;20.30;99.90
37408;DHT22;24866;50.248;8.252;2023-06-22T05:01:48;20.30;99.90
37408;DHT22;24866;50.248;8.252;2023-06-22T05:04:20;20.30;99.90
37408;DHT22;24866;50.248;8.252;2023-06-22T05:06:50;20.20;99.90
37408;DHT22;24866;50.248;8.252;2023-06-22T05:09:20;20.10;99.90
37408;DHT22;24866;50.248;8.252;2023-06-22T05:11:51;20.20;99.90
37408;DHT22;24866;50.248;8.252;2023-06-22T05:14:21;20.10;99.90
37408;DHT22;24866;50.248;8.252;2023-06-22T05:16:52;20.20;99.90
37408;DHT22;24866;50.248;8.252;2023-06-22T05:19:22;20.20;99.90
37408;DHT22;24866;50.248;8.252;2023-06-22T05:21:51;20.10;99.90
37408;DHT22;24866;50.248;8.252;2023-06-22T05:24:21;20.00;99.90
37408;DHT22;24866;50.248;8.252;2023-06-22T05:26:51;20.20;99.90
37408;DHT22;24866;50.248;8.252;2023-06-22T05:29:21;20.10;99.90
37408;DHT22;24866;50.248;8.252;2023-06-22T05:31:52;20.00;99.90
37408;DHT22;24866;50.248;8.252;2023-06-22T05:34:22;20.20;99.90
37408;DHT22;24866;50.248;8.252;2023-06-22T05:36:52;19.90;99.90
37408;DHT22;24866;50.248;8.252;2023-06-22T05:39:22;20.10;99.90
37408;DHT22;24866;50.248;8.252;2023-06-22T05:41:52;20.20;99.90
37408;DHT22;24866;50.248;8.252;2023-06-22T05:44:22;20.30;99.90
37408;DHT22;24866;50.248;8.252;2023-06-22T05:46:53;20.40;99.90
37408;DHT22;24866;50.248;8.252;2023-06-22T05:49:23;20.30;99.90
37408;DHT22;24866;50.248;8.252;2023-06-22T05:51:58;20.10;99.90
37408;DHT22;24866;50.248;8.252;2023-06-22T05:54:28;20.20;99.90
37408;DHT22;24866;50.248;8.252;2023-06-22T05:56:57;20.30;99.90
37408;DHT22;24866;50.248;8.252;2023-06-22T05:59:27;20.50;99.90
37408;DHT22;24866;50.248;8.252;2023-06-22T06:01:59;20.60;99.90
37408;DHT22;24866;50.248;8.252;2023-06-22T06:04:29;20.80;99.90
37408;DHT22;24866;50.248;8.252;2023-06-22T06:06:58;20.70;99.90
37408;DHT22;24866;50.248;8.252;2023-06-22T06:09:29;20.60;99.90
37408;DHT22;24866;50.248;8.252;2023-06-22T06:11:59;20.40;99.90
37408;DHT22;24866;50.248;8.252;2023-06-22T06:14:31;20.50;99.90
37408;DHT22;24866;50.248;8.252;2023-06-22T06:17:03;20.70;99.90
37408;DHT22;24866;50.248;8.252;2023-06-22T06:19:33;20.80;99.90
37408;DHT22;24866;50.248;8.252;2023-06-22T06:22:03;21.00;99.90
37408;DHT22;24866;50.248;8.252;2023-06-22T06:24:33;21.20;99.90
37408;DHT22;24866;50.248;8.252;2023-06-22T06:27:03;20.90;99.90
37408;DHT22;24866;50.248;8.252;2023-06-22T06:29:33;21.10;99.90
37408;DHT22;24866;50.248;8.252;2023-06-22T06:32:05;21.20;99.90
37408;DHT22;24866;50.248;8.252;2023-06-22T06:34:35;21.50;99.90
37408;DHT22;24866;50.248;8.252;2023-06-22T06:37:05;21.40;99.90
37408;DHT22;24866;50.248;8.252;2023-06-22T06:39:35;21.50;99.90
37408;DHT22;24866;50.248;8.252;2023-06-22T06:42:05;21.40;99.90
37408;DHT22;24866;50.248;8.252;2023-06-22T06:44:36;21.40;99.90
37408;DHT22;24866;50.248;8.252;2023-06-22T06:47:07;21.60;99.90
37408;DHT22;24866;50.248;8.252;2023-06-22T06:49:37;21.40;99.90
37408;DHT22;24866;50.248;8.252;2023-06-22T06:52:07;21.50;99.90
37408;DHT22;24866;50.248;8.252;2023-06-22T06:54:37;21.60;99.90
37408;DHT22;24866;50.248;8.252;2023-06-22T06:57:07;21.60;99.90
37408;DHT22;24866;50.248;8.252;2023-06-22T06:59:41;21.50;99.90
37408;DHT22;24866;50.248;8.252;2023-06-22T07:02:13;21.50;99.90
37408;DHT22;24866;50.248;8.252;2023-06-22T07:04:43;21.80;99.90
37408;DHT22;24866;50.248;8.252;2023-06-22T07:07:13;21.80;99.90
37408;DHT22;24866;50.248;8.252;2023-06-22T07:09:43;22.20;99.90
37408;DHT22;24866;50.248;8.252;2023-06-22T07:12:13;22.30;99.90
37408;DHT22;24866;50.248;8.252;2023-06-22T07:14:42;22.40;99.90
37408;DHT22;24866;50.248;8.252;2023-06-22T07:17:14;22.30;99.90
37408;DHT22;24866;50.248;8.252;2023-06-22T07:19:44;22.40;99.90
37408;DHT22;24866;50.248;8.252;2023-06-22T07:22:13;22.70;99.90
37408;DHT22;24866;50.248;8.252;2023-06-22T07:24:43;22.50;99.90
37408;DHT22;24866;50.248;8.252;2023-06-22T07:27:13;22.40;99.90
37408;DHT22;24866;50.248;8.252;2023-06-22T07:29:47;22.60;99.90
37408;DHT22;24866;50.248;8.252;2023-06-22T07:32:18;22.80;99.90
37408;DHT22;24866;50.248;8.252;2023-06-22T07:34:48;22.70;99.90
37408;DHT22;24866;50.248;8.252;2023-06-22T07:37:18;22.60;99.90
37408;DHT22;24866;50.248;8.252;2023-06-22T07:39:48;23.10;99.90
37408;DHT22;24866;50.248;8.252;2023-06-22T07:42:19;23.10;99.90
37408;DHT22;24866;50.248;8.252;2023-06-22T07:44:49;23.50;99.90
37408;DHT22;24866;50.248;8.252;2023-06-22T07:47:21;23.50;99.90
37408;DHT22;24866;50.248;8.252;2023-06-22T07:49:53;23.80;99.90
37408;DHT22;24866;50.248;8.252;2023-06-22T07:52:26;23.50;99.90
37408;DHT22;24866;50.248;8.252;2023-06-22T07:54:56;23.40;99.90
37408;DHT22;24866;50.248;8.252;2023-06-22T07:57:26;23.50;99.90
37408;DHT22;24866;50.248;8.252;2023-06-22T08:00:03;23.80;99.90
37408;DHT22;24866;50.248;8.252;2023-06-22T08:02:42;23.90;99.90
37408;DHT22;24866;50.248;8.252;2023-06-22T08:05:13;24.00;99.90
37408;DHT22;24866;50.248;8.252;2023-06-22T08:07:43;24.00;99.90
37408;DHT22;24866;50.248;8.252;2023-06-22T08:10:13;24.20;99.90
37408;DHT22;24866;50.248;8.252;2023-06-22T08:12:43;24.10;99.90
37408;DHT22;24866;50.248;8.252;2023-06-22T08:15:13;23.90;99.90
37408;DHT22;24866;50.248;8.252;2023-06-22T08:17:45;24.30;99.90
37408;DHT22;24866;50.248;8.252;2023-06-22T08:20:15;24.40;99.90
37408;DHT22;24866;50.248;8.252;2023-06-22T08:22:44;24.40;99.90
37408;DHT22;24866;50.248;8.252;2023-06-22T08:25:14;24.60;99.90
37408;DHT22;24866;50.248;8.252;2023-06-22T08:27:45;24.70;99.90
37408;DHT22;24866;50.248;8.252;2023-06-22T08:30:16;24.80;99.90
37408;DHT22;24866;50.248;8.252;2023-06-22T08:32:48;25.20;99.90
37408;DHT22;24866;50.248;8.252;2023-06-22T08:35:18;25.30;99.90
37408;DHT22;24866;50.248;8.252;2023-06-22T08:37:48;25.40;99.90
37408;DHT22;24866;50.248;8.252;2023-06-22T08:40:21;25.30;99.90
37408;DHT22;24866;50.248;8.252;2023-06-22T08:42:51;25.60;99.90
37408;DHT22;24866;50.248;8.252;2023-06-22T08:45:21;25.40;99.90
37408;DHT22;24866;50.248;8.252;2023-06-22T08:47:52;25.40;99.90
37408;DHT22;24866;50.248;8.252;2023-06-22T08:50:22;25.50;99.90
37408;DHT22;24866;50.248;8.252;2023-06-22T08:52:52;25.80;99.90
37408;DHT22;24866;50.248;8.252;2023-06-22T08:55:21;26.10;99.90
37408;DHT22;24866;50.248;8.252;2023-06-22T08:57:51;26.30;99.90
37408;DHT22;24866;50.248;8.252;2023-06-22T09:00:21;26.60;99.90
37408;DHT22;24866;50.248;8.252;2023-06-22T09:02:52;26.40;99.90
37408;DHT22;24866;50.248;8.252;2023-06-22T09:05:27;26.50;99.90
37408;DHT22;24866;50.248;8.252;2023-06-22T09:07:57;26.70;99.90
37408;DHT22;24866;50.248;8.252;2023-06-22T09:10:28;26.80;99.90
37408;DHT22;24866;50.248;8.252;2023-06-22T09:12:57;26.80;99.90
37408;DHT22;24866;50.248;8.252;2023-06-22T09:15:27;26.80;99.90
37408;DHT22;24866;50.248;8.252;2023-06-22T09:17:59;26.70;99.90
37408;DHT22;24866;50.248;8.252;2023-06-22T09:20:29;26.60;99.90
37408;DHT22;24866;50.248;8.252;2023-06-22T09:22:59;26.60;99.90
37408;DHT22;24866;50.248;8.252;2023-06-22T09:25:29;26.60;99.90
37408;DHT22;24866;50.248;8.252;2023-06-22T09:28:00;26.60;99.90
37408;DHT22;24866;50.248;8.252;2023-06-22T09:30:29;26.50;99.90
37408;DHT22;24866;50.248;8.252;2023-06-22T09:33:01;26.50;99.90
37408;DHT22;24866;50.248;8.252;2023-06-22T09:35:30;26.30;99.90
37408;DHT22;24866;50.248;8.252;2023-06-22T09:38:00;26.40;99.90
37408;DHT22;24866;50.248;8.252;2023-06-22T09:40:30;26.60;99.90
37408;DHT22;24866;50.248;8.252;2023-06-22T09:43:01;26.40;99.90
37408;DHT22;24866;50.248;8.252;2023-06-22T09:45:31;26.40;99.90
37408;DHT22;24866;50.248;8.252;2023-06-22T09:48:02;26.40;99.90
37408;DHT22;24866;50.248;8.252;2023-06-22T09:50:32;26.50;99.90
37408;DHT22;24866;50.248;8.252;2023-06-22T09:53:02;26.50;99.90
37408;DHT22;24866;50.248;8.252;2023-06-22T09:55:32;26.50;99.90
37408;DHT22;24866;50.248;8.252;2023-06-22T09:58:02;26.50;99.90
37408;DHT22;24866;50.248;8.252;2023-06-22T10:00:31;26.60;99.90
37408;DHT22;24866;50.248;8.252;2023-06-22T10:03:03;26.90;99.90
37408;DHT22;24866;50.248;8.252;2023-06-22T10:05:33;27.00;99.90
37408;DHT22;24866;50.248;8.252;2023-06-22T10:08:03;27.30;99.90
37408;DHT22;24866;50.248;8.252;2023-06-22T10:10:33;27.20;99.90
37408;DHT22;24866;50.248;8.252;2023-06-22T10:13:07;27.30;99.90
37408;DHT22;24866;50.248;8.252;2023-06-22T10:15:38;27.40;99.90
37408;DHT22;24866;50.248;8.252;2023-06-22T10:18:10;27.40;99.90
37408;DHT22;24866;50.248;8.252;2023-06-22T10:20:39;27.50;99.90
37408;DHT22;24866;50.248;8.252;2023-06-22T10:23:11;27.60;99.90
37408;DHT22;24866;50.248;8.252;2023-06-22T10:25:42;27.90;99.90
37408;DHT22;24866;50.248;8.252;2023-06-22T10:28:12;27.90;99.90
37408;DHT22;24866;50.248;8.252;2023-06-22T10:30:43;28.00;99.90
37408;DHT22;24866;50.248;8.252;2023-06-22T10:33:14;28.10;99.90
37408;DHT22;24866;50.248;8.252;2023-06-22T10:35:44;28.20;99.90
37408;DHT22;24866;50.248;8.252;2023-06-22T10:38:14;28.20;99.90
37408;DHT22;24866;50.248;8.252;2023-06-22T10:40:45;27.90;99.90
37408;DHT22;24866;50.248;8.252;2023-06-22T10:43:15;27.70;99.90
37408;DHT22;24866;50.248;8.252;2023-06-22T10:45:45;27.70;99.90
37408;DHT22;24866;50.248;8.252;2023-06-22T10:48:16;28.00;99.90
37408;DHT22;24866;50.248;8.252;2023-06-22T10:50:47;28.00;99.90
37408;DHT22;24866;50.248;8.252;2023-06-22T10:53:16;28.10;99.90
37408;DHT22;24866;50.248;8.252;2023-06-22T10:55:46;27.90;99.90
37408;DHT22;24866;50.248;8.252;2023-06-22T10:58:17;28.30;99.90
37408;DHT22;24866;50.248;8.252;2023-06-22T11:00:47;28.30;99.90
37408;DHT22;24866;50.248;8.252;2023-06-22T11:03:18;28.20;99.90
37408;DHT22;24866;50.248;8.252;2023-06-22T11:05:48;28.50;99.90
37408;DHT22;24866;50.248;8.252;2023-06-22T11:08:18;28.80;99.90
37408;DHT22;24866;50.248;8.252;2023-06-22T11:10:48;28.80;99.90
37408;DHT22;24866;50.248;8.252;2023-06-22T11:13:18;28.90;99.90
37408;DHT22;24866;50.248;8.252;2023-06-22T11:15:48;29.00;99.90
37408;DHT22;24866;50.248;8.252;2023-06-22T11:18:19;29.40;99.90
37408;DHT22;24866;50.248;8.252;2023-06-22T11:20:51;29.50;99.90
37408;DHT22;24866;50.248;8.252;2023-06-22T11:23:21;29.30;99.90
37408;DHT22;24866;50.248;8.252;2023-06-22T11:25:51;28.70;99.90
37408;DHT22;24866;50.248;8.252;2023-06-22T11:28:21;29.10;99.90
37408;DHT22;24866;50.248;8.252;2023-06-22T11:30:51;29.30;99.90
37408;DHT22;24866;50.248;8.252;2023-06-22T11:33:23;29.40;99.90
37408;DHT22;24866;50.248;8.252;2023-06-22T11:35:54;29.60;99.90
37408;DHT22;24866;50.248;8.252;2023-06-22T11:38:25;29.30;99.90
37408;DHT22;24866;50.248;8.252;2023-06-22T11:40:55;29.50;99.90
37408;DHT22;24866;50.248;8.252;2023-06-22T11:43:25;29.50;99.90
37408;DHT22;24866;50.248;8.252;2023-06-22T11:45:55;29.80;99.90
37408;DHT22;24866;50.248;8.252;2023-06-22T11:48:27;29.70;99.90
37408;DHT22;24866;50.248;8.252;2023-06-22T11:50:57;30.20;99.90
37408;DHT22;24866;50.248;8.252;2023-06-22T11:53:27;30.40;99.90
37408;DHT22;24866;50.248;8.252;2023-06-22T11:55:57;30.00;99.90
37408;DHT22;24866;50.248;8.252;2023-06-22T11:58:28;30.20;99.90
37408;DHT22;24866;50.248;8.252;2023-06-22T12:00:58;30.00;99.90
37408;DHT22;24866;50.248;8.252;2023-06-22T12:03:29;29.90;99.90
37408;DHT22;24866;50.248;8.252;2023-06-22T12:06:00;30.20;99.90
37408;DHT22;24866;50.248;8.252;2023-06-22T12:08:30;30.60;99.90
37408;DHT22;24866;50.248;8.252;2023-06-22T12:11:00;30.40;99.90
37408;DHT22;24866;50.248;8.252;2023-06-22T12:13:30;30.40;99.90
37408;DHT22;24866;50.248;8.252;2023-06-22T12:16:01;30.20;99.90
37408;DHT22;24866;50.248;8.252;2023-06-22T12:18:32;30.50;99.90
37408;DHT22;24866;50.248;8.252;2023-06-22T12:21:03;30.30;99.90
37408;DHT22;24866;50.248;8.252;2023-06-22T12:23:33;30.60;99.90
37408;DHT22;24866;50.248;8.252;2023-06-22T12:26:03;30.90;99.90
37408;DHT22;24866;50.248;8.252;2023-06-22T12:28:35;30.50;99.90
37408;DHT22;24866;50.248;8.252;2023-06-22T12:31:05;30.60;99.90
37408;DHT22;24866;50.248;8.252;2023-06-22T12:33:36;31.00;99.90
37408;DHT22;24866;50.248;8.252;2023-06-22T12:36:06;30.90;99.90
37408;DHT22;24866;50.248;8.252;2023-06-22T12:38:36;31.10;99.90
37408;DHT22;24866;50.248;8.252;2023-06-22T12:41:06;31.20;49.20
37408;DHT22;24866;50.248;8.252;2023-06-22T12:43:36;31.40;1.00
37408;DHT22;24866;50.248;8.252;2023-06-22T12:46:06;30.80;1.00
37408;DHT22;24866;50.248;8.252;2023-06-22T12:48:38;30.70;99.90
37408;DHT22;24866;50.248;8.252;2023-06-22T12:51:10;30.40;1.00
37408;DHT22;24866;50.248;8.252;2023-06-22T12:53:40;30.50;99.90
37408;DHT22;24866;50.248;8.252;2023-06-22T12:56:12;30.40;1.00
37408;DHT22;24866;50.248;8.252;2023-06-22T12:58:42;30.60;99.90
37408;DHT22;24866;50.248;8.252;2023-06-22T13:01:13;31.00;99.90
37408;DHT22;24866;50.248;8.252;2023-06-22T13:03:44;31.10;99.90
37408;DHT22;24866;50.248;8.252;2023-06-22T13:06:14;31.40;99.90
37408;DHT22;24866;50.248;8.252;2023-06-22T13:08:47;31.60;99.90
37408;DHT22;24866;50.248;8.252;2023-06-22T13:11:18;31.60;45.30
37408;DHT22;24866;50.248;8.252;2023-06-22T13:13:48;31.70;1.00
37408;DHT22;24866;50.248;8.252;2023-06-22T13:16:18;31.60;1.00
37408;DHT22;24866;50.248;8.252;2023-06-22T13:18:49;31.10;99.90
37408;DHT22;24866;50.248;8.252;2023-06-22T13:21:19;31.00;1.00
37408;DHT22;24866;50.248;8.252;2023-06-22T13:23:49;31.30;99.90
37408;DHT22;24866;50.248;8.252;2023-06-22T13:26:20;31.40;53.00
37408;DHT22;24866;50.248;8.252;2023-06-22T13:28:50;31.50;1.00
37408;DHT22;24866;50.248;8.252;2023-06-22T13:31:20;31.10;1.00
37408;DHT22;24866;50.248;8.252;2023-06-22T13:33:52;31.10;1.00
37408;DHT22;24866;50.248;8.252;2023-06-22T13:36:22;31.20;1.00
37408;DHT22;24866;50.248;8.252;2023-06-22T13:38:52;31.40;99.90
37408;DHT22;24866;50.248;8.252;2023-06-22T13:41:22;31.20;99.90
37408;DHT22;24866;50.248;8.252;2023-06-22T13:43:52;31.10;99.90
37408;DHT22;24866;50.248;8.252;2023-06-22T13:46:22;31.20;1.00
37408;DHT22;24866;50.248;8.252;2023-06-22T13:48:53;31.10;99.90
37408;DHT22;24866;50.248;8.252;2023-06-22T13:51:23;30.70;99.90
37408;DHT22;24866;50.248;8.252;2023-06-22T13:53:56;30.40;99.90
37408;DHT22;24866;50.248;8.252;2023-06-22T13:56:26;30.40;99.90
37408;DHT22;24866;50.248;8.252;2023-06-22T13:58:56;30.60;90.70
37408;DHT22;24866;50.248;8.252;2023-06-22T14:01:26;30.90;99.90
37408;DHT22;24866;50.248;8.252;2023-06-22T14:03:57;30.60;99.90
37408;DHT22;24866;50.248;8.252;2023-06-22T14:06:27;30.30;1.00
37408;DHT22;24866;50.248;8.252;2023-06-22T14:08:57;30.10;1.00
37408;DHT22;24866;50.248;8.252;2023-06-22T14:11:27;30.00;1.00
37408;DHT22;24866;50.248;8.252;2023-06-22T14:13:56;29.80;1.00
37408;DHT22;24866;50.248;8.252;2023-06-22T14:16:26;29.90;1.00
37408;DHT22;24866;50.248;8.252;2023-06-22T14:18:58;29.80;1.00
37408;DHT22;24866;50.248;8.252;2023-06-22T14:21:27;29.60;99.90
37408;DHT22;24866;50.248;8.252;2023-06-22T14:23:57;29.60;56.30
37408;DHT22;24866;50.248;8.252;2023-06-22T14:26:27;29.50;99.90
37408;DHT22;24866;50.248;8.252;2023-06-22T14:28:57;29.40;80.90
37408;DHT22;24866;50.248;8.252;2023-06-22T14:31:27;29.40;99.90
37408;DHT22;24866;50.248;8.252;2023-06-22T14:33:59;29.30;99.90
37408;DHT22;24866;50.248;8.252;2023-06-22T14:36:29;29.30;99.90
37408;DHT22;24866;50.248;8.252;2023-06-22T14:38:59;29.30;99.90
37408;DHT22;24866;50.248;8.252;2023-06-22T14:41:29;29.20;1.00
37408;DHT22;24866;50.248;8.252;2023-06-22T14:43:59;29.20;99.90
37408;DHT22;24866;50.248;8.252;2023-06-22T14:46:30;29.20;1.00
37408;DHT22;24866;50.248;8.252;2023-06-22T14:49:01;29.20;1.00
37408;DHT22;24866;50.248;8.252;2023-06-22T14:51:31;29.00;99.90
37408;DHT22;24866;50.248;8.252;2023-06-22T14:54:01;29.10;99.90
37408;DHT22;24866;50.248;8.252;2023-06-22T14:56:30;28.90;99.90
37408;DHT22;24866;50.248;8.252;2023-06-22T14:59:00;28.90;99.90
37408;DHT22;24866;50.248;8.252;2023-06-22T15:01:30;28.90;1.00
37408;DHT22;24866;50.248;8.252;2023-06-22T15:04:01;28.90;99.90
37408;DHT22;24866;50.248;8.252;2023-06-22T15:06:31;28.80;25.80
37408;DHT22;24866;50.248;8.252;2023-06-22T15:09:01;28.80;1.00
37408;DHT22;24866;50.248;8.252;2023-06-22T15:11:31;28.70;1.00
37408;DHT22;24866;50.248;8.252;2023-06-22T15:14:02;28.70;1.00
37408;DHT22;24866;50.248;8.252;2023-06-22T15:16:32;28.70;1.00
37408;DHT22;24866;50.248;8.252;2023-06-22T15:19:03;28.60;1.00
37408;DHT22;24866;50.248;8.252;2023-06-22T15:21:33;28.60;1.00
37408;DHT22;24866;50.248;8.252;2023-06-22T15:24:03;28.50;1.00
37408;DHT22;24866;50.248;8.252;2023-06-22T15:26:34;28.50;1.00
37408;DHT22;24866;50.248;8.252;2023-06-22T15:29:04;28.40;1.00
37408;DHT22;24866;50.248;8.252;2023-06-22T15:31:34;28.40;1.00
37408;DHT22;24866;50.248;8.252;2023-06-22T15:34:05;28.40;1.00
37408;DHT22;24866;50.248;8.252;2023-06-22T15:36:36;28.30;1.00
37408;DHT22;24866;50.248;8.252;2023-06-22T15:39:06;28.20;14.00
37408;DHT22;24866;50.248;8.252;2023-06-22T15:41:38;27.50;99.90
37408;DHT22;24866;50.248;8.252;2023-06-22T15:44:09;26.80;1.00
37408;DHT22;24866;50.248;8.252;2023-06-22T15:46:39;26.20;1.00
37408;DHT22;24866;50.248;8.252;2023-06-22T15:49:11;25.90;99.90
37408;DHT22;24866;50.248;8.252;2023-06-22T15:51:41;25.60;99.90
37408;DHT22;24866;50.248;8.252;2023-06-22T15:54:11;25.40;99.90